Pennington, Alabama
Current Conditions -  °F | °C
As of 3:35 PM on Thursday 23 Oct 2014 (Local Time) from KDYA Reporting Station
Clear Clear  
Wind Chill: 72°   Ceiling: Unl
Heat Index: 72°   Visibility: 10mi
Dew Point: 37°   Wind: 5mph
Humidity: 28%   Direction: 350°N
Pressure: 30.06"   Gusts: NA
Location:  32.21°N, 88.06°W
Report Text: KDYA 232035Z AUTO 35004KT 10SM CLR 22/03 A3006 RMK AO2 T02210028
Loading
Personal Weather Stations






























Interactive Weather Map
Tropical Storm Tracking
New forecast layout! Learn more

10-Day Weather Forecast

Advertisements
Track Severe Weather on mobile